^^
Meteo Knjazevac Station Historical Data
Daily Summary for June 26, 2022 Units:  Both    English   Metric
Daily Weekly Monthly Yearly Custom
  High: Low: Average:
Temperature: 65.8 °F /  18.8 °C 60.1 °F /  15.6 °C 63.6 °F /  17.6 °C
Dew Point: 65.6 °F /  18.7 °C 59.8 °F /  15.4 °C 63.3 °F /  17.4 °C
Humidity: 99% 98% 99%
Wind Speed: 5mph /  8km/h - 1.8mph /  2.9km/h
Wind Gust: 12mph /  19.3km/h - -
Wind- - South
Pressure: 30.06 in /  1017.8 hPa 30.02 in /  1016.5 hPa -
Precipitation: 0.01 in /  0.25 mm    
Historical Graphs
 
 
Tabular Data for June 26, 2022
Time Temperature Dew Point Pressure Wind Wind Speed Wind Gust Humidity Rainfall Rate (Hourly) solar Conditions
00:00 65.8 °F /  18.8 °C 65.3 °F /  18.5 °C 30.04in /  1017.2hPa ESE 2mph /  3.2km/h 7mph /  11.3km/h 98% 0.00in /  0mm 0 W/m2
00:10 65.8 °F /  18.8 °C 65.6 °F /  18.7 °C 30.04in /  1017.2hPa SE 3mph /  4.8km/h 8mph /  12.9km/h 99% 0.01in /  0.25mm 0 W/m2
00:20 65.5 °F /  18.6 °C 65.2 °F /  18.4 °C 30.04in /  1017.2hPa ESE 5mph /  8km/h 11mph /  17.7km/h 99% 0.00in /  0mm 0 W/m2
00:30 65.5 °F /  18.6 °C 65.2 °F /  18.4 °C 30.04in /  1017.2hPa ESE 2mph /  3.2km/h 10mph /  16.1km/h 99% 0.00in /  0mm 0 W/m2
00:50 65.3 °F /  18.5 °C 65 °F /  18.3 °C 30.04in /  1017.2hPa SSE 2mph /  3.2km/h 6mph /  9.7km/h 99% 0.00in /  0mm 0 W/m2
01:00 65.3 °F /  18.5 °C 65 °F /  18.3 °C 30.04in /  1017.2hPa SE 2mph /  3.2km/h 6mph /  9.7km/h 99% 0.00in /  0mm 0 W/m2
01:10 65.3 °F /  18.5 °C 65 °F /  18.3 °C 30.03in /  1016.8hPa SE 5mph /  8km/h 12mph /  19.3km/h 99% 0.00in /  0mm 0 W/m2
01:20 65.3 °F /  18.5 °C 65 °F /  18.3 °C 30.02in /  1016.5hPa SSE 3mph /  4.8km/h 9mph /  14.5km/h 99% 0.00in /  0mm 0 W/m2
01:30 65.1 °F /  18.4 °C 64.8 °F /  18.2 °C 30.02in /  1016.5hPa South 1mph /  1.6km/h 7mph /  11.3km/h 99% 0.00in /  0mm 0 W/m2
01:40 65.1 °F /  18.4 °C 64.8 °F /  18.2 °C 30.03in /  1016.8hPa WNW 1mph /  1.6km/h 5mph /  8km/h 99% 0.00in /  0mm 0 W/m2
01:50 65.1 °F /  18.4 °C 64.8 °F /  18.2 °C 30.03in /  1016.8hPa NE 3mph /  4.8km/h 6mph /  9.7km/h 99% 0.00in /  0mm 0 W/m2
02:00 65.1 °F /  18.4 °C 64.5 °F /  18.1 °C 30.03in /  1016.8hPa SE 3mph /  4.8km/h 7mph /  11.3km/h 98% 0.00in /  0mm 0 W/m2
02:10 65.1 °F /  18.4 °C 64.5 °F /  18.1 °C 30.03in /  1016.8hPa SSE 1mph /  1.6km/h 5mph /  8km/h 98% 0.00in /  0mm 0 W/m2
02:20 64.9 °F /  18.3 °C 64.4 °F /  18 °C 30.03in /  1016.8hPa SSW 2mph /  3.2km/h 5mph /  8km/h 98% 0.00in /  0mm 0 W/m2
02:30 64.6 °F /  18.1 °C 64 °F /  17.8 °C 30.04in /  1017.2hPa SW 1mph /  1.6km/h 3mph /  4.8km/h 98% 0.00in /  0mm 0 W/m2
02:40 64.2 °F /  17.9 °C 63.6 °F /  17.6 °C 30.04in /  1017.2hPa West 1mph /  1.6km/h 3mph /  4.8km/h 98% 0.00in /  0mm 0 W/m2
02:50 64 °F /  17.8 °C 63.5 °F /  17.5 °C 30.04in /  1017.2hPa WSW 1mph /  1.6km/h 2mph /  3.2km/h 98% 0.00in /  0mm 0 W/m2
03:00 63.7 °F /  17.6 °C 63.4 °F /  17.4 °C 30.04in /  1017.2hPa WSW 3mph /  4.8km/h 5mph /  8km/h 99% 0.00in /  0mm 0 W/m2
03:10 63.1 °F /  17.3 °C 62.9 °F /  17.2 °C 30.04in /  1017.2hPa West 3mph /  4.8km/h 7mph /  11.3km/h 99% 0.00in /  0mm 0 W/m2
03:20 62.8 °F /  17.1 °C 62.5 °F /  16.9 °C 30.04in /  1017.2hPa West 2mph /  3.2km/h 6mph /  9.7km/h 99% 0.00in /  0mm 0 W/m2
03:30 62.4 °F /  16.9 °C 62.1 °F /  16.7 °C 30.05in /  1017.5hPa South 1mph /  1.6km/h 4mph /  6.4km/h 99% 0.00in /  0mm 0 W/m2
03:40 62.2 °F /  16.8 °C 62 °F /  16.7 °C 30.05in /  1017.5hPa WSW 2mph /  3.2km/h 3mph /  4.8km/h 99% 0.00in /  0mm 0 W/m2
03:50 61.9 °F /  16.6 °C 61.6 °F /  16.4 °C 30.05in /  1017.5hPa Calm   3mph /  4.8km/h 99% 0.00in /  0mm 0 W/m2
04:00 61.5 °F /  16.4 °C 61.2 °F /  16.2 °C 30.06in /  1017.8hPa NW 1mph /  1.6km/h 2mph /  3.2km/h 99% 0.00in /  0mm 0 W/m2
04:10 61.2 °F /  16.2 °C 60.9 °F /  16.1 °C 30.05in /  1017.5hPa North 1mph /  1.6km/h 2mph /  3.2km/h 99% 0.00in /  0mm 0 W/m2
04:20 61 °F /  16.1 °C 60.7 °F /  15.9 °C 30.06in /  1017.8hPa NNE 1mph /  1.6km/h 2mph /  3.2km/h 99% 0.00in /  0mm 0 W/m2
04:30 61 °F /  16.1 °C 60.7 °F /  15.9 °C 30.06in /  1017.8hPa NNE 1mph /  1.6km/h 3mph /  4.8km/h 99% 0.00in /  0mm 0 W/m2
04:40 60.6 °F /  15.9 °C 60.3 °F /  15.7 °C 30.06in /  1017.8hPa Calm   3mph /  4.8km/h 99% 0.00in /  0mm 0 W/m2
04:50 60.3 °F /  15.7 °C 60 °F /  15.6 °C 30.06in /  1017.8hPa Calm   2mph /  3.2km/h 99% 0.00in /  0mm 0 W/m2
05:10 60.1 °F /  15.6 °C 59.8 °F /  15.4 °C 30.06in /  1017.8hPa Calm   3mph /  4.8km/h 99% 0.00in /  0mm 12 W/m2
Knjazevac, Serbia
Compliments of Weather Underground - 2 mb